createdAt,value
2023-04-12T00:01:18.276Z,3.46
2023-04-12T00:03:51.349Z,3.45
2023-04-12T00:06:27.227Z,3.42
2023-04-12T00:08:54.697Z,3.41
2023-04-12T00:11:21.604Z,3.42
2023-04-12T00:13:48.439Z,3.41
2023-04-12T00:16:16.101Z,3.41
2023-04-12T00:18:45.985Z,3.42
2023-04-12T00:21:13.969Z,3.40
2023-04-12T00:23:41.015Z,3.38
2023-04-12T00:26:08.740Z,3.37
2023-04-12T00:28:35.713Z,3.38
2023-04-12T00:31:02.938Z,3.38
2023-04-12T00:33:29.746Z,3.39
2023-04-12T00:35:58.124Z,3.38
2023-04-12T00:38:25.391Z,3.39
2023-04-12T00:40:52.756Z,3.38
2023-04-12T00:43:20.500Z,3.35
2023-04-12T00:45:48.074Z,3.34
2023-04-12T00:48:16.382Z,3.33
2023-04-12T00:50:44.998Z,3.35
2023-04-12T00:53:14.068Z,3.35
2023-04-12T00:55:44.107Z,3.33
2023-04-12T00:58:11.128Z,3.32
2023-04-12T01:00:39.345Z,3.31
2023-04-12T01:03:08.844Z,3.29
2023-04-12T01:05:43.986Z,3.27
2023-04-12T01:08:36.089Z,3.25
2023-04-12T01:11:38.634Z,3.21
2023-04-12T01:14:18.050Z,3.19
2023-04-12T01:16:51.478Z,3.17
2023-04-12T01:19:36.145Z,3.14
2023-04-12T01:22:33.008Z,3.11
2023-04-12T01:25:02.864Z,3.12
2023-04-12T01:27:53.455Z,3.14
2023-04-12T01:30:21.645Z,3.14
2023-04-12T01:32:52.827Z,3.16
2023-04-12T01:35:21.922Z,3.12
2023-04-12T01:37:49.334Z,3.12
2023-04-12T01:40:18.233Z,3.11
2023-04-12T01:42:45.670Z,3.07
2023-04-12T01:45:12.987Z,3.05
2023-04-12T01:47:40.073Z,3.05
2023-04-12T01:50:18.853Z,3.07
2023-04-12T01:53:03.556Z,3.06
2023-04-12T01:55:32.839Z,3.04
2023-04-12T01:58:03.516Z,3.03
2023-04-12T02:00:32.355Z,3.01
2023-04-12T02:03:00.477Z,3.00
2023-04-12T02:05:28.927Z,3.00
2023-04-12T02:07:57.803Z,2.99
2023-04-12T02:10:33.343Z,2.98
2023-04-12T02:13:04.494Z,2.96
2023-04-12T02:15:33.910Z,2.95
2023-04-12T02:18:01.798Z,2.93
2023-04-12T02:20:28.826Z,2.93
2023-04-12T02:22:56.151Z,2.92
2023-04-12T02:25:23.817Z,2.91
2023-04-12T02:27:51.525Z,2.91
2023-04-12T02:30:20.350Z,2.88
2023-04-12T02:32:47.526Z,2.86
2023-04-12T02:35:19.051Z,2.84
2023-04-12T02:37:47.524Z,2.81
2023-04-12T02:40:17.781Z,2.81
2023-04-12T02:42:45.319Z,2.80
2023-04-12T02:45:12.434Z,2.80
2023-04-12T02:47:41.075Z,2.80
2023-04-12T02:50:08.897Z,2.78
2023-04-12T02:52:35.902Z,2.77
2023-04-12T02:55:03.469Z,2.76
2023-04-12T02:57:30.402Z,2.73
2023-04-12T02:59:57.348Z,2.69
2023-04-12T03:02:25.766Z,2.69
2023-04-12T03:05:10.934Z,2.67
2023-04-12T03:07:38.812Z,2.66
2023-04-12T03:10:09.547Z,2.65
2023-04-12T03:12:36.745Z,2.64
2023-04-12T03:15:04.195Z,2.63
2023-04-12T03:17:31.398Z,2.62
2023-04-12T03:20:10.704Z,2.61
2023-04-12T03:22:38.882Z,2.61
2023-04-12T03:25:06.227Z,2.62
2023-04-12T03:27:33.357Z,2.61
2023-04-12T03:30:00.644Z,2.62
2023-04-12T03:32:30.147Z,2.61
2023-04-12T03:34:58.123Z,2.61
2023-04-12T03:37:25.076Z,2.60
2023-04-12T03:39:52.370Z,2.60
2023-04-12T03:42:32.461Z,2.61
2023-04-12T03:45:00.556Z,2.59
2023-04-12T03:47:27.653Z,2.61
2023-04-12T03:50:10.324Z,2.60
2023-04-12T03:52:38.740Z,2.59
2023-04-12T03:55:08.055Z,2.61
2023-04-12T03:57:35.458Z,2.61
2023-04-12T04:00:02.921Z,2.59
2023-04-12T04:02:33.202Z,2.58
2023-04-12T04:05:00.424Z,2.56
2023-04-12T04:07:28.273Z,2.57
2023-04-12T04:09:56.210Z,2.57
2023-04-12T04:12:23.067Z,2.58
2023-04-12T04:14:50.051Z,2.59
2023-04-12T04:17:16.891Z,2.59
2023-04-12T04:19:44.399Z,2.60
2023-04-12T04:22:13.942Z,2.61
2023-04-12T04:24:40.796Z,2.63
2023-04-12T04:27:07.712Z,2.64
2023-04-12T04:29:35.085Z,2.65
2023-04-12T04:32:02.442Z,2.67
2023-04-12T04:34:29.534Z,2.67
2023-04-12T04:36:57.822Z,2.67
2023-04-12T04:39:27.025Z,2.64
2023-04-12T04:41:55.274Z,2.64
2023-04-12T04:44:22.492Z,2.65
2023-04-12T04:46:52.035Z,2.65
2023-04-12T04:49:18.863Z,2.66
2023-04-12T04:51:45.914Z,2.67
2023-04-12T04:54:14.240Z,2.70
2023-04-12T04:56:41.497Z,2.72
2023-04-12T04:59:08.414Z,2.75
2023-04-12T05:01:38.494Z,2.77
2023-04-12T05:04:06.995Z,2.78
2023-04-12T05:06:37.133Z,2.79
2023-04-12T05:09:08.061Z,2.79
2023-04-12T05:11:37.368Z,2.80
2023-04-12T05:14:07.326Z,2.82
2023-04-12T05:16:34.192Z,2.85
2023-04-12T05:19:01.269Z,2.88
2023-04-12T05:21:29.085Z,2.90
2023-04-12T05:23:56.608Z,2.93
2023-04-12T05:26:26.459Z,2.93
2023-04-12T05:28:53.873Z,2.94
2023-04-12T05:31:21.185Z,2.94
2023-04-12T05:33:49.664Z,2.95
2023-04-12T05:36:18.265Z,2.98
2023-04-12T05:38:45.683Z,2.98
2023-04-12T05:41:12.955Z,3.01
2023-04-12T05:43:40.007Z,3.04
2023-04-12T05:46:09.890Z,3.05
2023-04-12T05:48:37.233Z,3.10
2023-04-12T05:51:05.518Z,3.16
2023-04-12T05:53:33.304Z,3.21
2023-04-12T05:56:00.220Z,3.28
2023-04-12T05:58:27.240Z,3.33
2023-04-12T06:00:55.662Z,3.37
2023-04-12T06:03:26.059Z,3.41
2023-04-12T06:05:54.108Z,3.46
2023-04-12T06:08:22.192Z,3.51
2023-04-12T06:10:49.236Z,3.56
2023-04-12T06:13:17.221Z,3.60
2023-04-12T06:15:44.166Z,3.62
2023-04-12T06:18:13.182Z,3.64
2023-04-12T06:20:41.498Z,3.63
2023-04-12T06:23:08.398Z,3.65
2023-04-12T06:25:35.710Z,3.66
2023-04-12T06:28:02.716Z,3.67
2023-04-12T06:30:29.610Z,3.68
2023-04-12T06:32:56.916Z,3.68
2023-04-12T06:35:24.369Z,3.68
2023-04-12T06:37:51.303Z,3.69
2023-04-12T06:40:18.398Z,3.69
2023-04-12T06:42:45.398Z,3.71
2023-04-12T06:45:12.670Z,3.71
2023-04-12T06:47:39.592Z,3.70
2023-04-12T06:50:07.260Z,3.69
2023-04-12T06:52:34.100Z,3.68
2023-04-12T06:55:01.326Z,3.67
2023-04-12T06:57:28.199Z,3.68
2023-04-12T06:59:55.553Z,3.70
2023-04-12T07:02:23.325Z,3.69
2023-04-12T07:04:56.362Z,3.68
2023-04-12T07:07:23.502Z,3.68
2023-04-12T07:09:55.493Z,3.70
2023-04-12T07:12:23.052Z,3.71
2023-04-12T07:14:52.377Z,3.70
2023-04-12T07:17:22.072Z,3.68
2023-04-12T07:19:50.415Z,3.70
2023-04-12T07:22:17.263Z,3.73
2023-04-12T07:24:45.157Z,3.75
2023-04-12T07:27:12.160Z,3.74
2023-04-12T07:29:39.293Z,3.78
2023-04-12T07:32:06.741Z,3.83
2023-04-12T07:34:33.824Z,3.86
2023-04-12T07:37:02.126Z,3.93
2023-04-12T07:39:30.582Z,4.01
2023-04-12T07:41:57.832Z,4.12
2023-04-12T07:44:24.701Z,4.21
2023-04-12T07:46:51.805Z,4.30
2023-04-12T07:49:19.025Z,4.37
2023-04-12T07:51:46.993Z,4.44
2023-04-12T07:54:14.961Z,4.48
2023-04-12T07:56:41.933Z,4.54
2023-04-12T07:59:09.888Z,4.56
2023-04-12T08:01:40.575Z,4.57
2023-04-12T08:04:07.930Z,4.62
2023-04-12T08:06:35.036Z,4.68
2023-04-12T08:09:02.280Z,4.71
2023-04-12T08:11:29.340Z,4.76
2023-04-12T08:13:56.513Z,4.87
2023-04-12T08:16:23.829Z,4.94
2023-04-12T08:18:51.559Z,4.99
2023-04-12T08:21:18.494Z,5.02
2023-04-12T08:23:46.562Z,5.08
2023-04-12T08:26:13.496Z,5.19
2023-04-12T08:28:40.586Z,5.33
2023-04-12T08:31:08.706Z,5.50
2023-04-12T08:33:35.998Z,5.59
2023-04-12T08:36:03.002Z,5.68
2023-04-12T08:38:44.050Z,5.79
2023-04-12T08:41:12.760Z,5.86
2023-04-12T08:43:45.627Z,5.94
2023-04-12T08:46:16.102Z,5.89
2023-04-12T08:48:50.310Z,5.90
2023-04-12T08:51:20.230Z,5.90
2023-04-12T08:53:48.140Z,5.94
2023-04-12T08:56:17.896Z,6.02
2023-04-12T08:58:51.475Z,6.06
2023-04-12T09:01:20.535Z,6.58
2023-04-12T09:03:47.729Z,6.62
2023-04-12T09:06:14.911Z,6.67
2023-04-12T09:08:57.071Z,6.72
2023-04-12T09:11:30.016Z,6.75
2023-04-12T09:13:58.847Z,6.73
2023-04-12T09:16:41.785Z,6.68
2023-04-12T09:19:09.854Z,6.69
2023-04-12T09:21:37.464Z,6.58
2023-04-12T09:24:06.332Z,6.47
2023-04-12T09:26:34.056Z,6.66
2023-04-12T09:29:01.184Z,7.07
2023-04-12T09:31:28.129Z,7.22
2023-04-12T09:34:08.082Z,7.19
2023-04-12T09:36:40.398Z,7.32
2023-04-12T09:39:08.453Z,7.29
2023-04-12T09:41:38.965Z,7.54
2023-04-12T09:44:08.507Z,7.68
2023-04-12T09:46:36.205Z,7.57
2023-04-12T09:49:05.723Z,7.58
2023-04-12T09:51:34.341Z,7.44
2023-04-12T09:54:04.193Z,7.20
2023-04-12T09:56:34.200Z,7.18
2023-04-12T09:59:07.227Z,7.25
2023-04-12T10:01:41.473Z,7.47
2023-04-12T10:04:10.184Z,7.55
2023-04-12T10:06:37.818Z,7.54
2023-04-12T10:09:05.656Z,7.63
2023-04-12T10:11:34.488Z,7.63
2023-04-12T10:14:07.847Z,7.62
2023-04-12T10:16:35.280Z,7.54
2023-04-12T10:19:04.345Z,7.93
2023-04-12T10:21:31.755Z,7.89
2023-04-12T10:24:01.198Z,7.72
2023-04-12T10:26:28.390Z,7.60
2023-04-12T10:29:26.497Z,7.67
2023-04-12T10:31:55.644Z,7.92
2023-04-12T10:34:32.135Z,7.88
2023-04-12T10:37:01.060Z,7.75
2023-04-12T10:39:47.399Z,8.17
2023-04-12T10:42:30.863Z,8.68
2023-04-12T10:45:23.635Z,9.21
2023-04-12T10:47:54.339Z,9.27
2023-04-12T10:50:25.128Z,8.92
2023-04-12T10:53:13.513Z,8.63
2023-04-12T10:55:41.446Z,8.31
2023-04-12T10:58:09.469Z,7.98
2023-04-12T11:00:58.728Z,7.77
2023-04-12T11:03:28.364Z,7.67
2023-04-12T11:06:19.964Z,7.76
2023-04-12T11:08:56.597Z,7.90
2023-04-12T11:11:27.252Z,8.10
2023-04-12T11:13:57.194Z,8.16
2023-04-12T11:16:24.135Z,8.14
2023-04-12T11:18:51.495Z,8.13
2023-04-12T11:21:19.169Z,8.14
2023-04-12T11:23:47.704Z,8.06
2023-04-12T11:26:22.233Z,8.08
2023-04-12T11:28:53.185Z,8.26
2023-04-12T11:31:21.999Z,8.58
2023-04-12T11:33:49.016Z,8.71
2023-04-12T11:36:16.423Z,8.65
2023-04-12T11:38:46.384Z,8.52
2023-04-12T11:41:15.334Z,8.40
2023-04-12T11:43:42.800Z,8.40
2023-04-12T11:46:09.910Z,8.38
2023-04-12T11:48:41.282Z,8.27
2023-04-12T11:51:32.373Z,8.31
2023-04-12T11:53:59.896Z,8.30
2023-04-12T11:56:30.073Z,8.26
2023-04-12T11:58:56.895Z,8.19
2023-04-12T12:01:25.735Z,8.21
2023-04-12T12:03:53.266Z,8.28
2023-04-12T12:06:22.625Z,8.38
2023-04-12T12:08:55.905Z,8.40
2023-04-12T12:11:23.925Z,8.47
2023-04-12T12:13:55.424Z,8.60
2023-04-12T12:16:28.131Z,8.78
2023-04-12T12:18:57.061Z,8.83
2023-04-12T12:21:24.628Z,8.67
2023-04-12T12:23:51.624Z,8.60
2023-04-12T12:26:27.007Z,8.50
2023-04-12T12:29:00.558Z,8.48
2023-04-12T12:31:33.798Z,8.46
2023-04-12T12:34:04.958Z,8.44
2023-04-12T12:36:36.512Z,8.37
2023-04-12T12:39:10.841Z,8.37
2023-04-12T12:41:39.305Z,8.27
2023-04-12T12:44:07.473Z,8.26
2023-04-12T12:46:51.788Z,8.20
2023-04-12T12:49:22.444Z,8.10
2023-04-12T12:51:50.827Z,8.13
2023-04-12T12:54:32.362Z,8.19
2023-04-12T12:57:11.375Z,8.33
2023-04-12T12:59:38.440Z,8.44
2023-04-12T13:02:07.676Z,8.57
2023-04-12T13:04:35.140Z,8.61
2023-04-12T13:07:02.046Z,8.70
2023-04-12T13:09:28.956Z,8.72
2023-04-12T13:11:57.492Z,8.55
2023-04-12T13:14:25.226Z,8.43
2023-04-12T13:16:52.238Z,8.27
2023-04-12T13:19:19.402Z,8.17
2023-04-12T13:21:47.935Z,8.13
2023-04-12T13:24:14.801Z,8.02
2023-04-12T13:26:41.823Z,7.90
2023-04-12T13:29:08.642Z,7.72
2023-04-12T13:31:36.688Z,7.53
2023-04-12T13:34:05.120Z,7.38
2023-04-12T13:36:31.965Z,7.31
2023-04-12T13:38:59.043Z,7.17
2023-04-12T13:41:26.744Z,7.12
2023-04-12T13:43:53.716Z,7.07
2023-04-12T13:46:21.191Z,7.04
2023-04-12T13:48:48.159Z,7.00
2023-04-12T13:51:15.135Z,6.93
2023-04-12T13:53:44.130Z,6.94
2023-04-12T13:56:13.027Z,6.95
2023-04-12T13:58:40.584Z,6.93
2023-04-12T14:01:09.143Z,6.93
2023-04-12T14:03:46.114Z,6.81
2023-04-12T14:06:13.230Z,6.70
2023-04-12T14:08:40.211Z,6.57
2023-04-12T14:11:07.963Z,6.52
2023-04-12T14:13:35.411Z,6.47
2023-04-12T14:16:02.374Z,6.49
2023-04-12T14:18:29.574Z,6.51
2023-04-12T14:20:57.874Z,6.50
2023-04-12T14:23:28.662Z,6.55
2023-04-12T14:25:56.724Z,6.59
2023-04-12T14:28:30.729Z,6.64
2023-04-12T14:30:58.176Z,6.68
2023-04-12T14:33:26.087Z,6.66
2023-04-12T14:35:54.269Z,6.64
2023-04-12T14:38:25.201Z,6.66
2023-04-12T14:40:52.101Z,6.75
2023-04-12T14:43:18.912Z,6.83
2023-04-12T14:45:45.969Z,6.87
2023-04-12T14:48:13.012Z,6.89
2023-04-12T14:50:39.984Z,6.86
2023-04-12T14:53:10.839Z,6.87
2023-04-12T14:55:38.658Z,6.95
2023-04-12T14:58:06.884Z,6.95
2023-04-12T15:00:34.099Z,6.95
2023-04-12T15:03:01.553Z,6.96
2023-04-12T15:05:28.753Z,6.99
2023-04-12T15:07:55.671Z,7.06
2023-04-12T15:10:22.637Z,7.07
2023-04-12T15:12:51.535Z,7.06
2023-04-12T15:15:18.358Z,7.04
2023-04-12T15:17:45.729Z,6.98
2023-04-12T15:20:17.093Z,6.96
2023-04-12T15:22:44.191Z,6.95
2023-04-12T15:25:11.965Z,6.97
2023-04-12T15:27:38.939Z,7.02
2023-04-12T15:30:10.256Z,7.08
2023-04-12T15:32:42.508Z,7.11
2023-04-12T15:35:25.365Z,7.11
2023-04-12T15:37:55.352Z,7.08
2023-04-12T15:40:23.176Z,7.05
2023-04-12T15:42:50.073Z,7.03
2023-04-12T15:45:17.470Z,6.97
2023-04-12T15:47:46.801Z,6.98
2023-04-12T15:50:15.368Z,7.00
2023-04-12T15:52:44.430Z,6.96
2023-04-12T15:55:12.956Z,6.94
2023-04-12T15:57:41.101Z,6.90
2023-04-12T16:00:21.283Z,6.88
2023-04-12T16:02:53.914Z,6.84
2023-04-12T16:05:21.302Z,6.83
2023-04-12T16:07:51.171Z,6.83
2023-04-12T16:10:21.183Z,6.79
2023-04-12T16:12:52.893Z,6.82
2023-04-12T16:15:20.947Z,6.82
2023-04-12T16:17:53.437Z,6.84
2023-04-12T16:20:23.481Z,6.83
2023-04-12T16:22:55.026Z,6.85
2023-04-12T16:25:30.759Z,6.87
2023-04-12T16:28:02.471Z,6.88
2023-04-12T16:30:31.542Z,6.88
2023-04-12T16:33:00.180Z,6.90
2023-04-12T16:35:27.308Z,6.93
2023-04-12T16:37:54.936Z,6.92
2023-04-12T16:40:22.419Z,6.94
2023-04-12T16:42:49.404Z,6.95
2023-04-12T16:45:16.558Z,6.96
2023-04-12T16:47:47.479Z,6.95
2023-04-12T16:50:17.661Z,6.94
2023-04-12T16:52:44.928Z,6.93
2023-04-12T16:55:12.475Z,6.96
2023-04-12T16:57:42.009Z,6.95
2023-04-12T17:00:29.210Z,6.98
2023-04-12T17:02:56.308Z,6.98
2023-04-12T17:05:23.757Z,6.99
2023-04-12T17:07:54.514Z,6.98
2023-04-12T17:10:23.257Z,7.00
2023-04-12T17:12:55.854Z,7.00
2023-04-12T17:15:23.210Z,7.00
2023-04-12T17:17:52.805Z,7.00
2023-04-12T17:20:22.355Z,6.98
2023-04-12T17:22:49.983Z,6.96
2023-04-12T17:25:20.701Z,6.92
2023-04-12T17:27:49.637Z,6.84
2023-04-12T17:30:17.923Z,6.79
2023-04-12T17:32:50.965Z,6.72
2023-04-12T17:35:18.634Z,6.69
2023-04-12T17:37:47.142Z,6.68
2023-04-12T17:40:15.481Z,6.67
2023-04-12T17:42:43.834Z,6.67
2023-04-12T17:45:13.999Z,6.67
2023-04-12T17:47:43.949Z,6.66
2023-04-12T17:50:11.869Z,6.67
2023-04-12T17:52:39.094Z,6.70
2023-04-12T17:55:09.436Z,6.72
2023-04-12T17:57:37.637Z,6.73
2023-04-12T18:00:14.572Z,6.77
2023-04-12T18:02:43.842Z,6.74
2023-04-12T18:05:11.439Z,6.74
2023-04-12T18:07:40.358Z,6.74
2023-04-12T18:10:15.767Z,6.79
2023-04-12T18:12:45.394Z,6.80
2023-04-12T18:15:13.025Z,6.80
2023-04-12T18:17:41.298Z,6.81
2023-04-12T18:20:10.863Z,6.80
2023-04-12T18:22:39.906Z,6.80
2023-04-12T18:25:11.908Z,6.80
2023-04-12T18:27:38.807Z,6.82
2023-04-12T18:30:07.952Z,6.85
2023-04-12T18:32:36.221Z,6.86
2023-04-12T18:35:05.225Z,6.85
2023-04-12T18:37:33.512Z,6.81
2023-04-12T18:40:01.091Z,6.77
2023-04-12T18:42:28.783Z,6.71
2023-04-12T18:44:58.403Z,6.67
2023-04-12T18:47:27.391Z,6.62
2023-04-12T18:49:55.786Z,6.55
2023-04-12T18:52:22.683Z,6.50
2023-04-12T18:54:59.988Z,6.43
2023-04-12T18:57:30.107Z,6.40
2023-04-12T18:59:57.823Z,6.38
2023-04-12T19:02:25.135Z,6.37
2023-04-12T19:04:52.334Z,6.38
2023-04-12T19:07:19.540Z,6.40
2023-04-12T19:09:48.275Z,6.42
2023-04-12T19:12:15.984Z,6.46
2023-04-12T19:14:43.694Z,6.45
2023-04-12T19:17:10.697Z,6.45
2023-04-12T19:19:38.116Z,6.41
2023-04-12T19:22:04.946Z,6.38
2023-04-12T19:24:32.142Z,6.35
2023-04-12T19:27:00.746Z,6.35
2023-04-12T19:29:29.586Z,6.35
2023-04-12T19:31:58.050Z,6.35
2023-04-12T19:34:29.797Z,6.35
2023-04-12T19:36:58.924Z,6.33
2023-04-12T19:39:27.376Z,6.34
2023-04-12T19:41:54.498Z,6.31
2023-04-12T19:44:23.406Z,6.28
2023-04-12T19:46:51.832Z,6.27
2023-04-12T19:49:22.213Z,6.25
2023-04-12T19:51:49.214Z,6.21
2023-04-12T19:54:16.107Z,6.20
2023-04-12T19:56:44.515Z,6.17
2023-04-12T19:59:13.581Z,6.12
2023-04-12T20:01:48.423Z,6.11
2023-04-12T20:04:23.053Z,6.06
2023-04-12T20:06:52.052Z,6.05
2023-04-12T20:09:19.186Z,6.04
2023-04-12T20:11:46.419Z,6.03
2023-04-12T20:14:13.516Z,6.00
2023-04-12T20:16:43.953Z,5.98
2023-04-12T20:19:12.052Z,5.96
2023-04-12T20:21:40.470Z,5.94
2023-04-12T20:24:10.166Z,5.93
2023-04-12T20:26:37.519Z,5.90
2023-04-12T20:29:05.015Z,5.87
2023-04-12T20:31:33.568Z,5.86
2023-04-12T20:34:00.533Z,5.86
2023-04-12T20:36:29.826Z,5.84
2023-04-12T20:38:57.030Z,5.81
2023-04-12T20:41:24.511Z,5.79
2023-04-12T20:43:54.409Z,5.77
2023-04-12T20:46:25.940Z,5.73
2023-04-12T20:48:57.663Z,5.74
2023-04-12T20:51:25.115Z,5.71
2023-04-12T20:53:52.477Z,5.70
2023-04-12T20:56:20.626Z,5.70
2023-04-12T20:58:49.856Z,5.68
2023-04-12T21:01:19.065Z,5.67
2023-04-12T21:03:47.099Z,5.67
2023-04-12T21:06:15.926Z,5.66
2023-04-12T21:08:47.670Z,5.65
2023-04-12T21:11:15.473Z,5.65
2023-04-12T21:13:42.489Z,5.66
2023-04-12T21:16:09.961Z,5.67
2023-04-12T21:18:36.957Z,5.65
2023-04-12T21:21:06.198Z,5.64
2023-04-12T21:23:33.234Z,5.64
2023-04-12T21:26:00.144Z,5.62
2023-04-12T21:28:29.740Z,5.61
2023-04-12T21:30:58.630Z,5.59
2023-04-12T21:33:25.773Z,5.56
2023-04-12T21:35:58.862Z,5.55
2023-04-12T21:38:26.253Z,5.54
2023-04-12T21:40:54.478Z,5.53
2023-04-12T21:43:21.273Z,5.51
2023-04-12T21:45:48.166Z,5.51
2023-04-12T21:48:15.065Z,5.49
2023-04-12T21:50:43.608Z,5.48
2023-04-12T21:53:10.631Z,5.47
2023-04-12T21:55:38.676Z,5.44
2023-04-12T21:58:07.439Z,5.43
2023-04-12T22:00:37.208Z,5.43
2023-04-12T22:03:04.684Z,5.42
2023-04-12T22:05:32.169Z,5.41
2023-04-12T22:08:00.746Z,5.41
2023-04-12T22:10:29.526Z,5.40
2023-04-12T22:12:56.379Z,5.37
2023-04-12T22:15:23.252Z,5.37
2023-04-12T22:17:54.125Z,5.34
2023-04-12T22:20:21.088Z,5.34
2023-04-12T22:22:48.701Z,5.33
2023-04-12T22:25:16.897Z,5.38
2023-04-12T22:27:48.026Z,5.40
2023-04-12T22:30:16.012Z,5.42
2023-04-12T22:32:43.271Z,5.42
2023-04-12T22:35:10.467Z,5.43
2023-04-12T22:37:47.048Z,5.42
2023-04-12T22:40:14.682Z,5.39
2023-04-12T22:42:49.152Z,5.35
2023-04-12T22:45:19.890Z,5.35
2023-04-12T22:47:47.824Z,5.34
2023-04-12T22:50:15.286Z,5.34
2023-04-12T22:52:42.869Z,5.33
2023-04-12T22:55:21.196Z,5.31
2023-04-12T22:57:48.035Z,5.28
2023-04-12T23:00:17.126Z,5.27
2023-04-12T23:02:46.586Z,5.25
2023-04-12T23:05:14.385Z,5.24
2023-04-12T23:07:41.764Z,5.22
2023-04-12T23:10:09.465Z,5.21
2023-04-12T23:12:37.538Z,5.19
2023-04-12T23:15:06.575Z,5.17
2023-04-12T23:17:34.102Z,5.16
2023-04-12T23:20:02.292Z,5.15
2023-04-12T23:22:55.802Z,5.14
2023-04-12T23:25:25.670Z,5.11
2023-04-12T23:27:52.614Z,5.10
2023-04-12T23:30:24.973Z,5.08
2023-04-12T23:32:53.589Z,5.08
2023-04-12T23:35:20.560Z,5.03
2023-04-12T23:37:48.767Z,5.01
2023-04-12T23:40:15.882Z,5.01
2023-04-12T23:42:43.726Z,5.02
2023-04-12T23:45:12.177Z,5.02
2023-04-12T23:47:39.136Z,5.02
2023-04-12T23:50:07.473Z,5.03
2023-04-12T23:52:34.558Z,5.03
2023-04-12T23:55:02.857Z,5.02
2023-04-12T23:57:29.916Z,4.99
2023-04-12T23:59:56.938Z,4.95
